Manton, Michigan
Current Conditions -  °F | °C
As of 7:54 PM on Tuesday 21 Oct 2014 (Local Time) from KCAD Reporting Station
Clear Clear  
Wind Chill: 38°   Ceiling: Unl
Heat Index: 38°   Visibility: 10mi
Dew Point: 34°   Wind: 3mph
Humidity: 88%   Direction: 340°NNW
Pressure: 30.22"   Gusts: NA
Location:  44.41°N, 85.4°W
Report Text: KCAD 212354Z AUTO 34003KT 10SM CLR 03/01 A3022 RMK AO2 T00310013
Loading
Personal Weather Stations






























Interactive Weather Map
Tropical Storm Tracking
New forecast layout! Learn more

10-Day Weather Forecast

Advertisements
Track Severe Weather on mobile